createdAt,value
2022-09-13T00:00:48.888Z,52.97
2022-09-13T00:01:49.171Z,52.97
2022-09-13T00:02:49.408Z,52.97
2022-09-13T00:03:49.646Z,52.97
2022-09-13T00:04:49.889Z,52.97
2022-09-13T00:05:50.138Z,52.97
2022-09-13T00:06:50.378Z,52.97
2022-09-13T00:07:50.627Z,52.97
2022-09-13T00:08:50.915Z,52.97
2022-09-13T00:09:51.137Z,52.97
2022-09-13T00:10:51.379Z,52.97
2022-09-13T00:11:51.631Z,52.97
2022-09-13T00:12:51.880Z,53.07
2022-09-13T00:13:52.129Z,52.97
2022-09-13T00:14:52.361Z,52.97
2022-09-13T00:15:52.617Z,52.97
2022-09-13T00:16:52.850Z,52.97
2022-09-13T00:17:53.090Z,52.97
2022-09-13T00:18:53.333Z,52.97
2022-09-13T00:19:53.581Z,53.07
2022-09-13T00:20:53.822Z,53.07
2022-09-13T00:21:54.071Z,53.07
2022-09-13T00:22:54.302Z,52.97
2022-09-13T00:23:54.552Z,53.07
2022-09-13T00:24:54.795Z,53.07
2022-09-13T00:25:55.053Z,53.07
2022-09-13T00:26:55.292Z,53.07
2022-09-13T00:27:55.534Z,53.07
2022-09-13T00:28:55.774Z,53.07
2022-09-13T00:29:56.014Z,53.07
2022-09-13T00:30:56.269Z,53.07
2022-09-13T00:31:56.602Z,53.07
2022-09-13T00:32:56.796Z,53.07
2022-09-13T00:33:57.046Z,53.07
2022-09-13T00:34:57.284Z,53.07
2022-09-13T00:35:57.545Z,53.09
2022-09-13T00:36:57.777Z,53.09
2022-09-13T00:37:58.039Z,53.07
2022-09-13T00:38:58.277Z,53.07
2022-09-13T00:39:58.550Z,53.09
2022-09-13T00:40:58.807Z,53.07
2022-09-13T00:41:59.049Z,53.09
2022-09-13T00:42:59.289Z,53.07
2022-09-13T00:43:59.538Z,53.09
2022-09-13T00:44:59.769Z,53.09
2022-09-13T00:46:00.128Z,53.09
2022-09-13T00:47:00.330Z,53.07
2022-09-13T00:48:00.578Z,53.09
2022-09-13T00:49:00.828Z,53.09
2022-09-13T00:50:01.072Z,53.09
2022-09-13T00:51:01.321Z,53.09
2022-09-13T00:52:01.572Z,53.09
2022-09-13T00:53:01.811Z,53.09
2022-09-13T00:54:02.051Z,53.09
2022-09-13T00:55:02.302Z,53.09
2022-09-13T00:56:02.543Z,53.09
2022-09-13T00:57:02.784Z,53.09
2022-09-13T00:58:03.033Z,53.09
2022-09-13T00:59:03.273Z,53.09
2022-09-13T01:00:03.514Z,53.09
2022-09-13T01:01:03.820Z,53.09
2022-09-13T01:02:04.103Z,53.09
2022-09-13T01:03:04.335Z,53.09
2022-09-13T01:04:04.576Z,53.09
2022-09-13T01:05:04.826Z,53.09
2022-09-13T01:06:05.075Z,53.09
2022-09-13T01:07:05.317Z,53.09
2022-09-13T01:08:05.556Z,53.09
2022-09-13T01:09:05.806Z,53.09
2022-09-13T01:10:06.048Z,53.09
2022-09-13T01:11:06.298Z,53.09
2022-09-13T01:12:06.537Z,53.09
2022-09-13T01:13:06.780Z,53.09
2022-09-13T01:14:07.019Z,53.09
2022-09-13T01:15:07.268Z,53.09
2022-09-13T01:16:07.563Z,53.09
2022-09-13T01:17:07.818Z,53.09
2022-09-13T01:18:08.059Z,53.09
2022-09-13T01:19:08.299Z,53.09
2022-09-13T01:20:08.579Z,53.09
2022-09-13T01:21:08.811Z,53.09
2022-09-13T01:22:09.051Z,53.09
2022-09-13T01:23:09.308Z,53.09
2022-09-13T01:24:09.561Z,53.09
2022-09-13T01:25:09.801Z,53.09
2022-09-13T01:26:10.050Z,53.09
2022-09-13T01:27:10.292Z,53.09
2022-09-13T01:28:10.530Z,53.09
2022-09-13T01:29:11.753Z,53.09
2022-09-13T01:30:11.053Z,53.09
2022-09-13T01:31:11.305Z,53.09
2022-09-13T01:32:11.544Z,53.09
2022-09-13T01:33:11.784Z,53.09
2022-09-13T01:34:12.025Z,53.19
2022-09-13T01:35:12.266Z,53.09
2022-09-13T01:36:12.505Z,53.09
2022-09-13T01:37:12.745Z,53.09
2022-09-13T01:38:12.996Z,53.19
2022-09-13T01:39:13.237Z,53.09
2022-09-13T01:40:13.540Z,53.19
2022-09-13T01:41:13.769Z,53.19
2022-09-13T01:42:14.007Z,53.19
2022-09-13T01:43:14.256Z,53.19
2022-09-13T01:44:14.495Z,53.19
2022-09-13T01:45:14.730Z,53.19
2022-09-13T01:46:14.978Z,53.19
2022-09-13T01:47:15.267Z,53.09
2022-09-13T01:48:15.499Z,53.19
2022-09-13T01:49:15.740Z,53.19
2022-09-13T01:50:15.980Z,53.19
2022-09-13T01:51:16.230Z,53.19
2022-09-13T01:52:16.501Z,53.19
2022-09-13T01:53:16.740Z,53.19
2022-09-13T01:54:16.981Z,53.19
2022-09-13T01:55:17.233Z,53.19
2022-09-13T01:56:17.472Z,53.19
2022-09-13T01:57:17.724Z,53.09
2022-09-13T01:58:18.012Z,53.09
2022-09-13T01:59:18.253Z,53.19
2022-09-13T02:00:18.493Z,53.19
2022-09-13T02:01:18.808Z,53.09
2022-09-13T02:02:19.123Z,53.19
2022-09-13T02:03:19.337Z,53.19
2022-09-13T02:04:19.575Z,53.19
2022-09-13T02:05:19.815Z,53.19
2022-09-13T02:06:20.062Z,53.19
2022-09-13T02:07:20.304Z,53.09
2022-09-13T02:08:20.553Z,53.09
2022-09-13T02:09:21.609Z,53.19
2022-09-13T02:10:21.116Z,53.19
2022-09-13T02:11:21.374Z,53.19
2022-09-13T02:12:21.630Z,53.09
2022-09-13T02:13:21.876Z,53.09
2022-09-13T02:14:22.119Z,53.19
2022-09-13T02:15:22.349Z,53.09
2022-09-13T02:16:22.617Z,53.09
2022-09-13T02:17:22.849Z,53.19
2022-09-13T02:18:23.119Z,53.19
2022-09-13T02:19:23.361Z,53.19
2022-09-13T02:20:23.609Z,53.19
2022-09-13T02:21:24.139Z,53.19
2022-09-13T02:22:24.178Z,53.19
2022-09-13T02:23:24.420Z,53.19
2022-09-13T02:24:24.661Z,53.19
2022-09-13T02:25:24.910Z,53.19
2022-09-13T02:26:25.160Z,53.19
2022-09-13T02:27:25.401Z,53.19
2022-09-13T02:28:25.657Z,53.19
2022-09-13T02:29:25.893Z,53.19
2022-09-13T02:30:26.133Z,53.19
2022-09-13T02:31:26.449Z,53.19
2022-09-13T02:32:26.675Z,53.19
2022-09-13T02:33:26.929Z,53.19
2022-09-13T02:34:27.168Z,53.19
2022-09-13T02:35:27.412Z,53.19
2022-09-13T02:36:28.135Z,53.19
2022-09-13T02:37:27.965Z,53.19
2022-09-13T02:38:28.202Z,53.19
2022-09-13T02:39:28.448Z,53.19
2022-09-13T02:40:28.688Z,53.19
2022-09-13T02:41:29.737Z,53.19
2022-09-13T02:42:29.156Z,53.19
2022-09-13T02:43:29.398Z,53.19
2022-09-13T02:44:29.637Z,53.19
2022-09-13T02:45:29.942Z,53.19
2022-09-13T02:46:31.827Z,53.19
2022-09-13T02:47:30.508Z,53.19
2022-09-13T02:48:31.613Z,53.19
2022-09-13T02:49:31.098Z,53.19
2022-09-13T02:50:31.339Z,53.19
2022-09-13T02:51:31.579Z,53.19
2022-09-13T02:52:31.840Z,53.19
2022-09-13T02:53:32.087Z,53.19
2022-09-13T02:54:32.330Z,53.19
2022-09-13T02:55:32.570Z,53.19
2022-09-13T02:56:32.821Z,53.19
2022-09-13T02:57:33.061Z,53.19
2022-09-13T02:58:33.301Z,53.19
2022-09-13T02:59:33.551Z,53.19
2022-09-13T03:00:33.791Z,53.19
2022-09-13T03:01:34.064Z,53.19
2022-09-13T03:02:34.372Z,53.19
2022-09-13T03:03:34.634Z,53.19
2022-09-13T03:04:34.873Z,53.19
2022-09-13T03:05:35.115Z,53.19
2022-09-13T03:06:36.176Z,53.19
2022-09-13T03:07:35.595Z,53.19
2022-09-13T03:08:35.835Z,53.19
2022-09-13T03:09:36.075Z,53.19
2022-09-13T03:10:36.315Z,53.19
2022-09-13T03:11:37.375Z,53.19
2022-09-13T03:12:36.798Z,53.19
2022-09-13T03:13:37.039Z,53.19
2022-09-13T03:14:37.276Z,53.19
2022-09-13T03:15:37.536Z,53.19
2022-09-13T03:16:38.731Z,53.19
2022-09-13T03:17:38.057Z,53.19
2022-09-13T03:18:38.308Z,53.19
2022-09-13T03:19:38.549Z,53.19
2022-09-13T03:20:38.788Z,53.19
2022-09-13T03:21:39.848Z,53.19
2022-09-13T03:22:39.269Z,53.19
2022-09-13T03:23:39.510Z,53.19
2022-09-13T03:24:39.750Z,53.19
2022-09-13T03:25:39.998Z,53.19
2022-09-13T03:26:40.250Z,53.19
2022-09-13T03:27:40.498Z,53.19
2022-09-13T03:28:40.732Z,53.19
2022-09-13T03:29:40.975Z,53.19
2022-09-13T03:30:41.222Z,53.19
2022-09-13T03:31:41.518Z,53.19
2022-09-13T03:32:41.742Z,53.19
2022-09-13T03:33:41.990Z,53.19
2022-09-13T03:34:42.233Z,53.19
2022-09-13T03:35:42.473Z,53.19
2022-09-13T03:36:43.149Z,53.19
2022-09-13T03:37:43.055Z,53.19
2022-09-13T03:38:43.294Z,53.19
2022-09-13T03:39:43.568Z,53.19
2022-09-13T03:40:43.816Z,53.19
2022-09-13T03:41:44.875Z,53.19
2022-09-13T03:42:44.297Z,53.19
2022-09-13T03:43:44.556Z,53.19
2022-09-13T03:44:44.797Z,53.19
2022-09-13T03:45:45.109Z,53.22
2022-09-13T03:46:46.164Z,53.19
2022-09-13T03:47:45.619Z,53.22
2022-09-13T03:48:45.870Z,53.19
2022-09-13T03:49:46.118Z,53.19
2022-09-13T03:50:46.366Z,53.19
2022-09-13T03:51:47.459Z,53.19
2022-09-13T03:52:46.889Z,53.19
2022-09-13T03:53:47.139Z,53.22
2022-09-13T03:54:47.402Z,53.19
2022-09-13T03:55:47.639Z,53.22
2022-09-13T03:56:47.900Z,53.22
2022-09-13T03:57:48.141Z,53.22
2022-09-13T03:58:48.578Z,53.22
2022-09-13T03:59:48.701Z,53.22
2022-09-13T04:00:48.973Z,53.22
2022-09-13T04:01:49.267Z,53.22
2022-09-13T04:02:49.520Z,53.22
2022-09-13T04:03:53.319Z,53.22
2022-09-13T04:04:50.982Z,53.22
2022-09-13T04:05:50.294Z,53.22
2022-09-13T04:06:51.134Z,53.22
2022-09-13T04:07:50.804Z,53.22
2022-09-13T04:08:51.049Z,53.22
2022-09-13T04:09:51.293Z,53.22
2022-09-13T04:10:51.524Z,53.22
2022-09-13T04:11:52.213Z,53.22
2022-09-13T04:12:52.005Z,53.22
2022-09-13T04:13:52.245Z,53.22
2022-09-13T04:14:52.487Z,53.22
2022-09-13T04:15:52.741Z,53.22
2022-09-13T04:16:53.878Z,53.22
2022-09-13T04:17:53.305Z,53.22
2022-09-13T04:18:53.549Z,53.22
2022-09-13T04:19:53.788Z,53.22
2022-09-13T04:20:54.037Z,53.22
2022-09-13T04:21:55.095Z,53.22
2022-09-13T04:22:54.516Z,53.22
2022-09-13T04:23:54.757Z,53.22
2022-09-13T04:24:57.230Z,53.22
2022-09-13T04:25:56.228Z,53.22
2022-09-13T04:26:55.529Z,53.22
2022-09-13T04:27:55.770Z,53.22
2022-09-13T04:28:56.010Z,53.22
2022-09-13T04:29:56.260Z,53.22
2022-09-13T04:30:56.500Z,53.22
2022-09-13T04:31:56.779Z,53.22
2022-09-13T04:32:57.024Z,53.22
2022-09-13T04:33:57.272Z,53.22
2022-09-13T04:34:57.523Z,53.22
2022-09-13T04:35:57.780Z,53.22
2022-09-13T04:36:58.141Z,53.22
2022-09-13T04:37:58.361Z,53.22
2022-09-13T04:38:58.615Z,53.22
2022-09-13T04:39:58.922Z,53.22
2022-09-13T04:40:59.144Z,53.22
2022-09-13T04:41:59.403Z,53.22
2022-09-13T04:42:59.653Z,53.22
2022-09-13T04:43:59.913Z,53.22
2022-09-13T04:45:00.163Z,53.22
2022-09-13T04:46:00.440Z,53.22
2022-09-13T04:47:01.157Z,53.22
2022-09-13T04:48:00.956Z,53.22
2022-09-13T04:49:01.186Z,53.22
2022-09-13T04:50:01.434Z,53.22
2022-09-13T04:51:01.677Z,53.22
2022-09-13T04:52:02.228Z,53.22
2022-09-13T04:53:02.148Z,53.22
2022-09-13T04:54:02.449Z,53.22
2022-09-13T04:55:02.698Z,53.22
2022-09-13T04:56:02.959Z,53.22
2022-09-13T04:57:03.230Z,53.22
2022-09-13T04:58:03.479Z,53.22
2022-09-13T04:59:03.740Z,53.22
2022-09-13T05:00:04.000Z,53.22
2022-09-13T05:01:04.368Z,53.22
2022-09-13T05:02:04.624Z,53.22
2022-09-13T05:03:04.872Z,53.12
2022-09-13T05:04:05.131Z,53.22
2022-09-13T05:05:05.439Z,53.22
2022-09-13T05:06:05.692Z,53.22
2022-09-13T05:07:06.142Z,53.12
2022-09-13T05:08:06.233Z,53.12
2022-09-13T05:09:06.484Z,52.82
2022-09-13T05:10:06.744Z,52.72
2022-09-13T05:11:07.002Z,52.42
2022-09-13T05:12:07.255Z,52.32
2022-09-13T05:13:07.541Z,52.12
2022-09-13T05:14:07.792Z,51.92
2022-09-13T05:15:08.045Z,51.72
2022-09-13T05:16:08.387Z,51.72
2022-09-13T05:17:08.605Z,51.52
2022-09-13T05:18:08.861Z,51.42
2022-09-13T05:19:09.116Z,51.32
2022-09-13T05:20:09.377Z,51.32
2022-09-13T05:21:09.634Z,51.22
2022-09-13T05:22:10.156Z,51.12
2022-09-13T05:23:10.271Z,51.02
2022-09-13T05:24:10.508Z,51.02
2022-09-13T05:25:10.770Z,50.92
2022-09-13T05:26:11.020Z,51.02
2022-09-13T05:27:11.278Z,50.82
2022-09-13T05:28:11.529Z,50.82
2022-09-13T05:29:11.789Z,50.82
2022-09-13T05:30:12.041Z,50.82
2022-09-13T05:31:12.337Z,50.72
2022-09-13T05:32:13.529Z,50.72
2022-09-13T05:33:12.849Z,50.72
2022-09-13T05:34:13.113Z,50.62
2022-09-13T05:35:13.362Z,50.64
2022-09-13T05:36:13.613Z,50.64
2022-09-13T05:37:13.881Z,50.64
2022-09-13T05:38:14.132Z,50.74
2022-09-13T05:39:39.842Z,50.94
2022-09-13T05:40:15.694Z,50.34
2022-09-13T05:41:14.893Z,50.04
2022-09-13T05:42:15.204Z,50.07
2022-09-13T05:43:15.464Z,50.07
2022-09-13T05:44:15.726Z,50.19
2022-09-13T05:45:15.976Z,50.59
2022-09-13T05:46:16.275Z,50.92
2022-09-13T05:47:16.560Z,51.12
2022-09-13T05:48:16.805Z,51.44
2022-09-13T05:49:17.063Z,51.54
2022-09-13T05:50:44.815Z,51.84
2022-09-13T05:51:18.575Z,51.97
2022-09-13T05:52:17.896Z,52.17
2022-09-13T05:53:18.156Z,52.39
2022-09-13T05:54:18.426Z,52.49
2022-09-13T05:55:18.697Z,52.80
2022-09-13T05:56:18.976Z,53.12
2022-09-13T05:57:19.248Z,53.32
2022-09-13T05:58:19.509Z,53.52
2022-09-13T05:59:19.798Z,53.65
2022-09-13T06:00:20.068Z,53.75
2022-09-13T06:01:20.433Z,53.95
2022-09-13T06:02:20.700Z,54.15
2022-09-13T06:03:21.008Z,54.25
2022-09-13T06:04:21.270Z,54.35
2022-09-13T06:05:21.540Z,54.45
2022-09-13T06:06:21.821Z,54.45
2022-09-13T06:07:22.121Z,54.55
2022-09-13T06:08:22.381Z,54.55
2022-09-13T06:09:22.652Z,54.65
2022-09-13T06:10:22.922Z,54.65
2022-09-13T06:11:23.192Z,54.75
2022-09-13T06:12:23.483Z,54.85
2022-09-13T06:13:23.760Z,54.85
2022-09-13T06:14:24.023Z,54.96
2022-09-13T06:15:24.293Z,55.05
2022-09-13T06:16:24.586Z,55.05
2022-09-13T06:17:24.874Z,55.08
2022-09-13T06:18:25.144Z,55.08
2022-09-13T06:19:25.415Z,55.18
2022-09-13T06:20:25.687Z,55.38
2022-09-13T06:21:29.140Z,55.28
2022-09-13T06:22:26.216Z,55.28
2022-09-13T06:23:26.486Z,55.28
2022-09-13T06:24:26.770Z,55.28
2022-09-13T06:25:27.037Z,55.26
2022-09-13T06:26:27.306Z,55.05
2022-09-13T06:27:27.594Z,55.05
2022-09-13T06:28:27.867Z,55.05
2022-09-13T06:29:28.138Z,55.16
2022-09-13T06:30:28.408Z,55.16
2022-09-13T06:31:28.811Z,55.26
2022-09-13T06:32:28.955Z,55.26
2022-09-13T06:33:29.229Z,55.46
2022-09-13T06:34:31.421Z,55.46
2022-09-13T06:35:29.799Z,55.33
2022-09-13T06:36:30.077Z,55.33
2022-09-13T06:37:30.420Z,55.33
2022-09-13T06:38:30.650Z,55.33
2022-09-13T06:39:30.928Z,55.23
2022-09-13T06:40:31.222Z,55.23
2022-09-13T06:41:31.532Z,55.13
2022-09-13T06:42:31.812Z,55.13
2022-09-13T06:43:32.111Z,55.13
2022-09-13T06:44:32.372Z,54.93
2022-09-13T06:45:32.642Z,54.80
2022-09-13T06:46:32.965Z,54.50
2022-09-13T06:47:33.274Z,54.40
2022-09-13T06:48:33.554Z,54.10
2022-09-13T06:49:33.826Z,53.90
2022-09-13T06:50:34.104Z,53.70
2022-09-13T06:51:34.374Z,53.70
2022-09-13T06:52:34.654Z,53.70
2022-09-13T06:53:34.925Z,53.59
2022-09-13T06:54:35.202Z,53.50
2022-09-13T06:55:35.475Z,53.47
2022-09-13T06:56:35.752Z,53.27
2022-09-13T06:57:36.025Z,53.17
2022-09-13T06:58:36.287Z,53.17
2022-09-13T06:59:36.567Z,53.07
2022-09-13T07:00:36.854Z,52.97
2022-09-13T07:01:37.231Z,52.87
2022-09-13T07:02:37.407Z,52.84
2022-09-13T07:03:37.719Z,52.75
2022-09-13T07:04:37.988Z,52.64
2022-09-13T07:05:38.278Z,52.55
2022-09-13T07:06:38.548Z,52.44
2022-09-13T07:07:38.827Z,52.34
2022-09-13T07:08:39.101Z,52.22
2022-09-13T07:09:39.390Z,52.22
2022-09-13T07:10:39.660Z,52.12
2022-09-13T07:11:39.939Z,52.12
2022-09-13T07:12:40.231Z,52.12
2022-09-13T07:13:40.510Z,52.22
2022-09-13T07:14:41.731Z,52.12
2022-09-13T07:15:41.193Z,52.12
2022-09-13T07:16:41.302Z,52.09
2022-09-13T07:17:41.620Z,51.99
2022-09-13T07:18:41.892Z,51.99
2022-09-13T07:19:42.183Z,51.89
2022-09-13T07:20:42.454Z,51.89
2022-09-13T07:21:42.744Z,51.69
2022-09-13T07:22:43.014Z,51.59
2022-09-13T07:23:43.305Z,51.46
2022-09-13T07:24:43.555Z,51.87
2022-09-13T07:25:43.826Z,52.07
2022-09-13T07:26:44.095Z,51.77
2022-09-13T07:27:44.385Z,51.97
2022-09-13T07:28:44.656Z,51.97
2022-09-13T07:29:44.938Z,51.94
2022-09-13T07:30:45.246Z,51.94
2022-09-13T07:31:45.503Z,51.74
2022-09-13T07:32:45.775Z,51.64
2022-09-13T07:33:46.047Z,51.44
2022-09-13T07:34:46.317Z,51.34
2022-09-13T07:35:46.596Z,51.12
2022-09-13T07:36:46.868Z,51.12
2022-09-13T07:37:47.148Z,51.02
2022-09-13T07:38:47.427Z,50.82
2022-09-13T07:39:47.746Z,50.72
2022-09-13T07:40:48.000Z,50.52
2022-09-13T07:41:48.271Z,50.49
2022-09-13T07:42:48.545Z,50.29
2022-09-13T07:43:48.809Z,50.20
2022-09-13T07:44:49.081Z,49.99
2022-09-13T07:45:49.388Z,49.90
2022-09-13T07:46:49.669Z,49.79
2022-09-13T07:47:49.951Z,49.67
2022-09-13T07:48:50.339Z,49.47
2022-09-13T07:49:50.502Z,49.37
2022-09-13T07:50:50.773Z,49.37
2022-09-13T07:51:51.068Z,49.37
2022-09-13T07:52:51.361Z,49.27
2022-09-13T07:53:56.514Z,49.07
2022-09-13T07:54:52.904Z,48.97
2022-09-13T07:55:52.234Z,49.07
2022-09-13T07:56:52.537Z,49.07
2022-09-13T07:57:52.812Z,48.94
2022-09-13T07:58:53.089Z,48.85
2022-09-13T07:59:53.364Z,48.75
2022-09-13T08:00:53.647Z,48.55
2022-09-13T08:01:54.050Z,48.55
2022-09-13T08:02:54.205Z,48.55
2022-09-13T08:03:54.484Z,48.55
2022-09-13T08:04:54.756Z,48.55
2022-09-13T08:05:55.055Z,48.72
2022-09-13T08:06:55.335Z,48.63
2022-09-13T08:07:55.618Z,49.02
2022-09-13T08:08:55.908Z,49.42
2022-09-13T08:09:56.179Z,49.32
2022-09-13T08:10:56.455Z,49.32
2022-09-13T08:11:56.730Z,49.22
2022-09-13T08:12:57.009Z,49.12
2022-09-13T08:13:57.300Z,49.12
2022-09-13T08:14:57.578Z,49.10
2022-09-13T08:15:57.884Z,49.00
2022-09-13T08:16:58.179Z,49.10
2022-09-13T08:17:58.450Z,49.20
2022-09-13T08:18:58.750Z,49.20
2022-09-13T08:19:59.030Z,49.10
2022-09-13T08:20:59.348Z,48.90
2022-09-13T08:21:59.633Z,48.80
2022-09-13T08:22:59.909Z,49.00
2022-09-13T08:24:00.180Z,48.97
2022-09-13T08:25:00.449Z,48.97
2022-09-13T08:26:00.722Z,49.18
2022-09-13T08:27:00.992Z,49.27
2022-09-13T08:28:01.271Z,49.68
2022-09-13T08:29:01.544Z,49.27
2022-09-13T08:30:01.824Z,49.38
2022-09-13T08:31:02.119Z,49.18
2022-09-13T08:32:02.411Z,49.48
2022-09-13T08:33:02.705Z,49.27
2022-09-13T08:34:02.974Z,49.27
2022-09-13T08:35:03.253Z,49.25
2022-09-13T08:36:03.525Z,49.35
2022-09-13T08:37:03.796Z,49.25
2022-09-13T08:38:04.075Z,49.25
2022-09-13T08:39:04.347Z,49.15
2022-09-13T08:40:04.653Z,49.05
2022-09-13T08:41:04.963Z,49.05
2022-09-13T08:42:05.247Z,48.85
2022-09-13T08:43:05.538Z,48.95
2022-09-13T08:44:05.826Z,49.25
2022-09-13T08:45:06.097Z,49.35
2022-09-13T08:46:06.391Z,49.45
2022-09-13T08:47:06.660Z,49.45
2022-09-13T08:48:06.939Z,49.25
2022-09-13T08:49:07.212Z,49.25
2022-09-13T08:50:07.499Z,49.15
2022-09-13T08:51:07.773Z,49.15
2022-09-13T08:52:08.048Z,49.33
2022-09-13T08:53:08.319Z,49.83
2022-09-13T08:54:08.591Z,49.73
2022-09-13T08:55:08.871Z,49.93
2022-09-13T08:56:09.141Z,49.83
2022-09-13T08:57:09.423Z,49.43
2022-09-13T08:58:09.691Z,49.33
2022-09-13T08:59:09.969Z,49.33
2022-09-13T09:00:10.262Z,49.53
2022-09-13T09:01:10.588Z,49.53
2022-09-13T09:02:10.856Z,49.53
2022-09-13T09:03:11.142Z,49.53
2022-09-13T09:04:11.431Z,49.73
2022-09-13T09:05:11.715Z,49.93
2022-09-13T09:06:11.994Z,49.93
2022-09-13T09:07:12.264Z,50.23
2022-09-13T09:08:12.552Z,50.02
2022-09-13T09:09:12.825Z,49.93
2022-09-13T09:10:13.105Z,49.83
2022-09-13T09:11:13.386Z,50.13
2022-09-13T09:12:13.655Z,50.00
2022-09-13T09:13:13.926Z,49.90
2022-09-13T09:14:14.205Z,49.80
2022-09-13T09:15:14.515Z,49.60
2022-09-13T09:16:14.857Z,49.51
2022-09-13T09:17:15.108Z,49.40
2022-09-13T09:18:15.377Z,49.30
2022-09-13T09:19:15.679Z,49.33
2022-09-13T09:20:15.958Z,49.23
2022-09-13T09:21:16.248Z,49.43
2022-09-13T09:22:16.518Z,49.33
2022-09-13T09:23:21.157Z,49.30
2022-09-13T09:24:17.130Z,49.51
2022-09-13T09:25:17.409Z,50.50
2022-09-13T09:26:17.677Z,50.60
2022-09-13T09:27:17.951Z,50.70
2022-09-13T09:28:18.229Z,51.10
2022-09-13T09:29:22.920Z,50.60
2022-09-13T09:30:19.785Z,51.20
2022-09-13T09:31:19.155Z,51.20
2022-09-13T09:32:19.416Z,51.00
2022-09-13T09:33:19.690Z,50.60
2022-09-13T09:34:19.964Z,51.50
2022-09-13T09:35:20.270Z,51.29
2022-09-13T09:36:20.545Z,50.40
2022-09-13T09:37:20.822Z,50.70
2022-09-13T09:38:21.104Z,50.90
2022-09-13T09:39:21.373Z,51.00
2022-09-13T09:40:21.821Z,50.70
2022-09-13T09:41:21.966Z,51.00
2022-09-13T09:42:22.234Z,51.10
2022-09-13T09:43:22.514Z,50.90
2022-09-13T09:44:22.786Z,50.50
2022-09-13T09:45:23.063Z,50.20
2022-09-13T09:46:23.401Z,50.50
2022-09-13T09:47:28.596Z,50.70
2022-09-13T09:48:24.906Z,50.70
2022-09-13T09:49:24.236Z,50.70
2022-09-13T09:50:24.508Z,50.80
2022-09-13T09:51:24.816Z,50.90
2022-09-13T09:52:25.088Z,51.00
2022-09-13T09:53:25.359Z,50.70
2022-09-13T09:54:25.635Z,50.60
2022-09-13T09:55:25.928Z,50.60
2022-09-13T09:56:26.198Z,50.50
2022-09-13T09:57:26.470Z,50.30
2022-09-13T09:58:26.742Z,50.50
2022-09-13T09:59:27.009Z,50.60
2022-09-13T10:00:27.300Z,50.70
2022-09-13T10:01:27.617Z,50.50
2022-09-13T10:02:27.814Z,50.50
2022-09-13T10:03:28.090Z,50.30
2022-09-13T10:04:28.361Z,49.90
2022-09-13T10:05:28.643Z,49.70
2022-09-13T10:06:28.931Z,49.70
2022-09-13T10:07:29.211Z,49.70
2022-09-13T10:08:29.479Z,49.70
2022-09-13T10:09:29.753Z,49.30
2022-09-13T10:10:30.025Z,49.30
2022-09-13T10:11:30.305Z,49.51
2022-09-13T10:12:30.582Z,49.51
2022-09-13T10:13:31.865Z,49.30
2022-09-13T10:14:31.155Z,49.21
2022-09-13T10:15:31.445Z,49.10
2022-09-13T10:16:31.749Z,49.40
2022-09-13T10:17:32.077Z,49.60
2022-09-13T10:18:47.641Z,49.40
2022-09-13T10:19:33.574Z,49.40
2022-09-13T10:20:32.902Z,49.40
2022-09-13T10:21:33.173Z,49.40
2022-09-13T10:22:33.437Z,49.10
2022-09-13T10:23:33.718Z,49.01
2022-09-13T10:24:33.997Z,48.61
2022-09-13T10:25:34.257Z,48.91
2022-09-13T10:26:34.519Z,49.10
2022-09-13T10:27:34.784Z,49.01
2022-09-13T10:28:35.039Z,49.01
2022-09-13T10:29:35.298Z,49.01
2022-09-13T10:30:35.612Z,48.71
2022-09-13T10:31:35.859Z,48.61
2022-09-13T10:32:36.109Z,48.50
2022-09-13T10:33:36.373Z,48.50
2022-09-13T10:34:36.619Z,48.61
2022-09-13T10:35:36.890Z,48.61
2022-09-13T10:36:53.499Z,48.50
2022-09-13T10:37:38.381Z,48.31
2022-09-13T10:38:37.746Z,48.31
2022-09-13T10:39:38.020Z,48.31
2022-09-13T10:40:38.280Z,48.21
2022-09-13T10:41:38.543Z,48.21
2022-09-13T10:42:38.792Z,48.21
2022-09-13T10:43:39.084Z,48.31
2022-09-13T10:44:39.333Z,48.31
2022-09-13T10:45:39.634Z,48.31
2022-09-13T10:46:39.905Z,48.11
2022-09-13T10:47:40.164Z,48.11
2022-09-13T10:48:40.415Z,48.11
2022-09-13T10:49:40.675Z,48.11
2022-09-13T10:50:40.934Z,48.11
2022-09-13T10:51:41.194Z,48.11
2022-09-13T10:52:41.445Z,48.21
2022-09-13T10:53:41.732Z,48.11
2022-09-13T10:54:41.995Z,48.11
2022-09-13T10:55:42.246Z,48.21
2022-09-13T10:56:42.507Z,48.31
2022-09-13T10:57:42.776Z,48.31
2022-09-13T10:58:43.039Z,48.31
2022-09-13T10:59:43.297Z,48.41
2022-09-13T11:00:43.568Z,48.41
2022-09-13T11:01:43.893Z,48.50
2022-09-13T11:02:44.128Z,48.61
2022-09-13T11:03:44.444Z,48.61
2022-09-13T11:04:44.700Z,48.61
2022-09-13T11:05:44.949Z,48.61
2022-09-13T11:06:45.239Z,48.61
2022-09-13T11:07:45.498Z,48.50
2022-09-13T11:08:45.759Z,48.61
2022-09-13T11:09:46.011Z,48.50
2022-09-13T11:10:46.269Z,48.61
2022-09-13T11:11:46.528Z,48.50
2022-09-13T11:12:46.772Z,48.50
2022-09-13T11:13:47.084Z,48.61
2022-09-13T11:14:47.362Z,48.50
2022-09-13T11:15:47.622Z,48.50
2022-09-13T11:16:47.890Z,48.50
2022-09-13T11:17:48.150Z,48.41
2022-09-13T11:18:48.403Z,48.41
2022-09-13T11:19:48.663Z,48.61
2022-09-13T11:20:48.927Z,48.61
2022-09-13T11:21:49.200Z,48.80
2022-09-13T11:22:49.456Z,48.80
2022-09-13T11:23:49.851Z,48.80
2022-09-13T11:24:50.013Z,48.91
2022-09-13T11:25:50.305Z,48.80
2022-09-13T11:26:50.566Z,48.80
2022-09-13T11:27:50.826Z,48.80
2022-09-13T11:28:51.086Z,48.91
2022-09-13T11:29:51.336Z,49.01
2022-09-13T11:30:51.604Z,49.21
2022-09-13T11:31:51.904Z,49.10
2022-09-13T11:32:52.177Z,49.10
2022-09-13T11:33:53.407Z,49.10
2022-09-13T11:34:52.710Z,49.10
2022-09-13T11:35:52.974Z,49.10
2022-09-13T11:36:53.219Z,49.01
2022-09-13T11:37:53.469Z,49.01
2022-09-13T11:38:53.729Z,49.13
2022-09-13T11:39:54.015Z,49.10
2022-09-13T11:40:54.291Z,49.10
2022-09-13T11:41:54.547Z,49.21
2022-09-13T11:42:54.894Z,49.21
2022-09-13T11:43:55.110Z,49.33
2022-09-13T11:44:55.369Z,49.43
2022-09-13T11:45:55.667Z,49.53
2022-09-13T11:46:55.914Z,49.53
2022-09-13T11:47:56.172Z,49.53
2022-09-13T11:48:56.432Z,49.63
2022-09-13T11:49:56.682Z,49.63
2022-09-13T11:50:56.976Z,49.83
2022-09-13T11:51:57.203Z,49.53
2022-09-13T11:52:57.463Z,49.53
2022-09-13T11:53:57.729Z,49.53
2022-09-13T11:54:57.982Z,49.53
2022-09-13T11:55:58.265Z,49.53
2022-09-13T11:56:58.524Z,49.73
2022-09-13T11:57:58.784Z,49.73
2022-09-13T11:58:59.056Z,49.83
2022-09-13T11:59:59.308Z,49.83
2022-09-13T12:00:59.566Z,49.83
2022-09-13T12:01:59.961Z,49.83
2022-09-13T12:03:00.169Z,49.93
2022-09-13T12:04:00.324Z,50.02
2022-09-13T12:05:21.074Z,50.13
2022-09-13T12:06:01.830Z,50.13
2022-09-13T12:07:01.155Z,50.23
2022-09-13T12:08:01.409Z,50.13
2022-09-13T12:09:01.668Z,50.13
2022-09-13T12:10:01.929Z,50.13
2022-09-13T12:11:02.196Z,50.23
2022-09-13T12:12:02.449Z,50.23
2022-09-13T12:13:02.709Z,50.23
2022-09-13T12:14:02.980Z,50.32
2022-09-13T12:15:03.239Z,50.52
2022-09-13T12:16:03.490Z,50.52
2022-09-13T12:17:03.750Z,50.52
2022-09-13T12:18:04.002Z,50.62
2022-09-13T12:19:04.281Z,50.52
2022-09-13T12:20:04.541Z,50.62
2022-09-13T12:21:04.804Z,50.43
2022-09-13T12:22:05.120Z,50.32
2022-09-13T12:23:05.355Z,50.43
2022-09-13T12:24:05.624Z,50.43
2022-09-13T12:25:05.909Z,50.43
2022-09-13T12:26:06.182Z,50.52
2022-09-13T12:27:06.463Z,50.52
2022-09-13T12:28:06.702Z,50.52
2022-09-13T12:29:06.969Z,50.52
2022-09-13T12:30:07.216Z,50.52
2022-09-13T12:31:07.476Z,50.62
2022-09-13T12:32:07.813Z,50.73
2022-09-13T12:33:08.029Z,50.82
2022-09-13T12:34:08.326Z,50.82
2022-09-13T12:35:08.683Z,50.82
2022-09-13T12:36:08.896Z,50.82
2022-09-13T12:37:09.216Z,50.82
2022-09-13T12:38:09.537Z,50.92
2022-09-13T12:39:09.798Z,50.92
2022-09-13T12:40:10.130Z,50.92
2022-09-13T12:41:10.378Z,51.03
2022-09-13T12:42:10.637Z,51.03
2022-09-13T12:43:10.898Z,51.12
2022-09-13T12:44:11.159Z,51.12
2022-09-13T12:45:11.417Z,51.12
2022-09-13T12:46:11.746Z,51.12
2022-09-13T12:47:12.005Z,51.12
2022-09-13T12:48:12.260Z,51.12
2022-09-13T12:49:12.529Z,51.22
2022-09-13T12:51:14.021Z,51.42
2022-09-13T12:52:13.331Z,51.62
2022-09-13T12:53:13.602Z,51.62
2022-09-13T12:54:13.889Z,51.72
2022-09-13T12:55:35.612Z,51.72
2022-09-13T12:56:15.402Z,51.62
2022-09-13T12:57:14.713Z,51.72